Terminal Aerodrome Forecast
Issued by NWS Midland/Odessa, TX

Home | Current Version | Previous Version | Text Only | Print | Product List | Glossary On
Versions: 1 2 3 4 5 6 7 8 9 10 11 12 13 14 15
000
FTUS44 KMAF 230539
TAFMAF
TAF
KMAF 230539Z 2306/2406 16016KT P6SM SCT200
     FM231200 16017G27KT P6SM OVC004
     FM231500 16020G30KT P6SM OVC005
     FM231700 16027G37KT P6SM BKN250
     FM240100 24016G26KT P6SM BKN200=

USA.gov is the U.S. government's official web portal to all federal, state and local government web resources and services.